Fawn Grove, Pennsylvania
Current Conditions -  °F | °C
As of 3:53 AM on Friday 28 Nov 2014 (Local Time) from KTHV Reporting Station
Clear Clear  
Wind Chill: 28°   Ceiling: Unl
Heat Index: 28°   Visibility: 10mi
Dew Point: 20°   Wind: 3mph
Humidity: 72%   Direction: 270°W
Pressure: 30.15"   Gusts: NA
Location:  39.73°N, 76.45°W
Report Text: KTHV 280853Z AUTO 27003KT 10SM CLR M02/M07 A3015 RMK AO2 SLP218 T10221067 51004
Loading
Personal Weather Stations






























Interactive Weather Map New forecast layout! Learn more

10-Day Weather Forecast

Advertisements
Track Severe Weather on mobile